Johan Hjort — LDGJ — position and weather

sailwx.info

Track history (hours):
 
Tides and Currents Weather Stations Pressure Air Temp Water Temp Dewpoint Dewpoint Depression Visibility Wind Speed Wind Dir Waves Ship Positions

Oceanographic research ship Johan Hjort (Norway)

Detailed information on ship capabilities available from University of Delaware's Ocean Information Center and ARCUS's ALIAS (Arctic Logistics Information and Support) project.

Last reported at 2020-Mar-29 14:30 UTC. Time now 2020-Mar-29 15:56 UTC.
Position N 67°60' E 013°32'.

MMSI: 257139000.

Date/timePositionNaut miles runAvg speedWind from/ knotsBaromVisibWave heightAir tempDewpointWater temp
2020-Mar-29 14:30N 67°60' E 013°32'5 5.2
2020-Mar-29 13:30N 67°57' E 013°44'4 8.7
2020-Mar-29 13:00N 68°00' E 013°35'1 1.6
2020-Mar-29 12:30N 68°01' E 013°34'5 4.9
2020-Mar-29 11:30N 68°02' E 013°46'7 2.6
2020-Mar-29 09:00N 68°08' E 013°55'4 0.7
2020-Mar-29 03:30N 68°04' E 013°57'7 6.5
2020-Mar-29 02:30N 68°00' E 013°43'4 1.7
2020-Mar-29 00:00N 68°04' E 013°45'0 0.2
2020-Mar-28 23:30N 68°04' E 013°45'6 2.3
2020-Mar-28 21:01N 68°05' E 013°60'4 2.8
2020-Mar-28 19:30N 68°04' E 014°11'6 1.5
2020-Mar-28 15:30N 68°08' E 014°23'5 1.5
2020-Mar-28 12:30N 68°11' E 014°31'1 2.2
2020-Mar-28 12:00N 68°10' E 014°29'2 3.8
2020-Mar-28 11:30N 68°09' E 014°28'6 2.0
2020-Mar-28 08:30N 68°13' E 014°38'4 2.1
2020-Mar-28 06:30N 68°17' E 014°43'0 0.1
2020-Mar-28 06:00N 68°17' E 014°43'2 0.7
2020-Mar-28 03:00N 68°15' E 014°42'1 1.3
2020-Mar-28 02:30N 68°14' E 014°41'3 5.0
2020-Mar-28 02:00N 68°12' E 014°37'1 0.7
2020-Mar-28 01:00N 68°12' E 014°38'15 6.2
2020-Mar-27 22:30N 67°57' E 014°25'10 9.8
2020-Mar-27 21:31N 67°48' E 014°20'4610.1
2020-Mar-27 17:00N 67°03' E 013°52'510.7
2020-Mar-27 16:30N 67°00' E 013°41'510.1
2020-Mar-27 16:00N 66°58' E 013°30'10 9.8
2020-Mar-27 15:00N 66°50' E 013°16'1610.4
2020-Mar-27 13:30N 66°35' E 013°06'4 4.5
2020-Mar-27 12:30N 66°32' E 012°57'611.2
2020-Mar-27 12:00N 66°26' E 012°59'1611.1
2020-Mar-27 10:30N 66°10' E 012°50'611.3
2020-Mar-27 10:00N 66°05' E 012°41'17 8.8
2020-Mar-27 08:00N 65°50' E 012°22'2210.8
2020-Mar-27 06:00N 65°30' E 011°60'25 9.9
2020-Mar-27 03:30N 65°06' E 011°48'6110.2
2020-Mar-26 21:31N 64°17' E 010°20'4 8.3
2020-Mar-26 21:00N 64°14' E 010°15'3010.1
2020-Mar-26 18:00N 63°49' E 009°35'510.6
2020-Mar-26 17:30N 63°44' E 009°32'19 7.6
2020-Mar-26 15:00N 63°29' E 009°58'12 8.1
2020-Mar-26 13:30N 63°27' E 010°25'0 0.0
2020-Mar-26 11:00N 63°26' E 010°25'0 0.0
2020-Mar-26 10:00N 63°26' E 010°25'0 0.0
2020-Mar-26 09:30N 63°26' E 010°25'0 0.0
2020-Mar-26 08:00N 63°26' E 010°25'0 0.0
2020-Mar-26 07:30N 63°26' E 010°25'0 0.0
2020-Mar-26 07:00N 63°26' E 010°25'0 0.0
2020-Mar-26 06:30N 63°26' E 010°25'0 0.0
2020-Mar-26 06:00N 63°26' E 010°25'0 0.0
2020-Mar-26 05:30N 63°26' E 010°25'0 0.0
2020-Mar-26 04:30N 63°26' E 010°25'0 0.0
2020-Mar-26 03:30N 63°26' E 010°25'0 0.0
2020-Mar-25 22:59N 63°26' E 010°25'0 0.0
2020-Mar-25 20:29N 63°26' E 010°25'0 0.0
2020-Mar-25 15:29N 63°26' E 010°25'0 0.0
2020-Mar-25 13:29N 63°26' E 010°25'0 0.0
2020-Mar-25 12:59N 63°26' E 010°25'0 0.0
2020-Mar-25 10:29N 63°26' E 010°25'0 0.0
2020-Mar-25 08:29N 63°26' E 010°25'0 0.0
2020-Mar-25 07:59N 63°26' E 010°25'0 0.0
2020-Mar-25 05:29N 63°26' E 010°25'0 0.0
2020-Mar-25 01:29N 63°26' E 010°25'0 0.0
2020-Mar-25 00:59N 63°26' E 010°25'0 0.0
2020-Mar-25 00:29N 63°26' E 010°25'0 0.0
2020-Mar-24 22:59N 63°26' E 010°25'0 0.0
2020-Mar-24 21:29N 63°26' E 010°25'0 0.0
2020-Mar-24 19:59N 63°26' E 010°25'0 0.0
2020-Mar-24 19:29N 63°26' E 010°25'0 0.0
2020-Mar-24 18:59N 63°26' E 010°25'0 0.0
2020-Mar-24 17:29N 63°26' E 010°25'0 0.0
2020-Mar-24 16:59N 63°26' E 010°25'0 0.0
2020-Mar-24 15:29N 63°26' E 010°25'0 0.0
2020-Mar-24 13:59N 63°26' E 010°25'0 0.0
2020-Mar-24 13:29N 63°26' E 010°25'0 0.0
2020-Mar-24 12:59N 63°26' E 010°25'0 0.0
2020-Mar-24 09:58N 63°26' E 010°25'0 0.0
2020-Mar-24 08:28N 63°26' E 010°25'0 0.0
2020-Mar-24 07:58N 63°26' E 010°25'0 0.0
2020-Mar-24 07:28N 63°26' E 010°25'0 0.0
2020-Mar-24 05:28N 63°26' E 010°25'0 0.0
2020-Mar-24 04:28N 63°26' E 010°25'0 0.0
2020-Mar-24 01:28N 63°26' E 010°25'0 0.0
2020-Mar-24 00:28N 63°26' E 010°25'0 0.0
2020-Mar-23 23:28N 63°26' E 010°25'0 0.0
2020-Mar-23 20:58N 63°26' E 010°25'0 0.0
2020-Mar-23 19:28N 63°26' E 010°25'29 4.8
2020-Mar-23 13:30N 63°41' E 009°29'5 9.6
2020-Mar-23 13:00N 63°46' E 009°32'14 9.5
2020-Mar-23 11:30N 63°58' E 009°50'510.0
2020-Mar-23 11:00N 64°01' E 009°58'11 7.7
2020-Mar-23 09:30N 64°11' E 010°10'13 8.9
2020-Mar-23 07:59N 64°22' E 010°28'21 8.4
2020-Mar-23 05:30N 64°41' E 010°48'10 9.7
2020-Mar-23 04:30N 64°47' E 011°05'19 9.7
2020-Mar-23 02:30N 65°01' E 011°39'10 9.7
2020-Mar-23 01:30N 65°09' E 011°50'14 9.2
2020-Mar-23 00:00N 65°22' E 012°02'12 7.8
2020-Mar-22 22:30N 65°34' E 012°05'4 8.7
2020-Mar-22 22:01N 65°37' E 012°12'19 9.4
2020-Mar-22 20:00N 65°55' E 012°23'5 8.9
2020-Mar-22 19:30N 65°59' E 012°28'9 8.9
2020-Mar-22 18:30N 66°06' E 012°42'9 9.0
2020-Mar-22 17:29N 66°14' E 012°54'14 9.3
2020-Mar-22 16:00N 66°27' E 012°59'32 8.0
2020-Mar-22 12:00N 66°57' E 013°29'18 5.1
2020-Mar-22 08:30N 67°11' E 013°59'16 6.4
2020-Mar-22 06:00N 67°23' E 014°26'9 9.1
2020-Mar-22 05:01N 67°32' E 014°21'13 8.6
2020-Mar-22 03:30N 67°45' E 014°17'7 6.7
2020-Mar-22 02:30N 67°50' E 014°27'22 7.2
2020-Mar-21 23:30N 68°05' E 015°09'7 7.2
2020-Mar-21 22:30N 68°10' E 015°24'18 8.7
2020-Mar-21 20:30N 68°22' E 015°58'9 9.4
2020-Mar-21 19:30N 68°30' E 016°09'13 8.8
2020-Mar-21 18:00N 68°39' E 016°37'5 9.5
2020-Mar-21 17:30N 68°43' E 016°42'9 9.2
2020-Mar-21 16:30N 68°51' E 016°55'27 8.9
2020-Mar-21 13:31N 69°09' E 017°50'14 6.9
2020-Mar-21 11:30N 69°22' E 018°06'16 7.9
2020-Mar-21 09:30N 69°33' E 018°38'9 1.4
2020-Mar-21 03:00N 69°39' E 018°58'0 0.0
2020-Mar-21 02:30N 69°39' E 018°58'0 0.0
2020-Mar-21 02:00N 69°39' E 018°58'0 0.0
2020-Mar-21 01:30N 69°39' E 018°58'0 0.0
2020-Mar-21 01:00N 69°39' E 018°58'0 0.0
2020-Mar-21 00:00N 69°39' E 018°58'0 0.0
2020-Mar-20 23:00N 69°39' E 018°58'0 0.0
2020-Mar-20 21:30N 69°39' E 018°58'0 0.0
2020-Mar-20 21:00N 69°39' E 018°58'0 0.0
2020-Mar-20 20:30N 69°39' E 018°58'0 0.0
2020-Mar-20 19:29N 69°39' E 018°58'0 0.0
2020-Mar-20 18:59N 69°39' E 018°58'0 0.0
2020-Mar-20 16:59N 69°39' E 018°58'0 0.0
2020-Mar-20 15:59N 69°39' E 018°58'0 0.0
2020-Mar-20 14:29N 69°39' E 018°58'0 0.0
2020-Mar-20 13:59N 69°39' E 018°58'0 0.0
2020-Mar-20 12:59N 69°39' E 018°58'0 0.0
2020-Mar-20 10:59N 69°39' E 018°58'0 0.0
2020-Mar-20 08:59N 69°39' E 018°58'0 0.0
2020-Mar-20 08:29N 69°39' E 018°58'0 0.0
2020-Mar-20 05:59N 69°39' E 018°58'0 0.0
2020-Mar-20 05:29N 69°39' E 018°58'0 0.0
2020-Mar-20 02:59N 69°39' E 018°58'0 0.0
2020-Mar-20 02:29N 69°39' E 018°58'0 0.0
2020-Mar-19 23:59N 69°39' E 018°58'0 0.0
2020-Mar-19 22:59N 69°39' E 018°58'0 0.0
2020-Mar-19 22:29N 69°39' E 018°58'0 0.0
2020-Mar-19 19:59N 69°39' E 018°58'0 0.0
2020-Mar-19 19:29N 69°39' E 018°58'0 0.0
2020-Mar-19 18:29N 69°39' E 018°58'0 0.0
2020-Mar-19 16:29N 69°39' E 018°58'  
Track history (hours):
 
Tides and Currents Weather Stations Pressure Air Temp Water Temp Dewpoint Dewpoint Depression Visibility Wind Speed Wind Dir Waves Ship Positions

Oceanographic research ship Johan Hjort (Norway)

Detailed information on ship capabilities available from University of Delaware's Ocean Information Center and ARCUS's ALIAS (Arctic Logistics Information and Support) project.

Last reported at 2020-Mar-29 14:30 UTC. Time now 2020-Mar-29 15:56 UTC.
Position N 67°60' E 013°32'.

MMSI: 257139000.

Date/timePositionNaut miles runAvg speedWind from/ knotsBaromVisibWave heightAir tempDewpointWater temp
2020-Mar-29 14:30N 67°60' E 013°32'5 5.2
2020-Mar-29 13:30N 67°57' E 013°44'4 8.7
2020-Mar-29 13:00N 68°00' E 013°35'1 1.6
2020-Mar-29 12:30N 68°01' E 013°34'5 4.9
2020-Mar-29 11:30N 68°02' E 013°46'7 2.6
2020-Mar-29 09:00N 68°08' E 013°55'4 0.7
2020-Mar-29 03:30N 68°04' E 013°57'7 6.5
2020-Mar-29 02:30N 68°00' E 013°43'4 1.7
2020-Mar-29 00:00N 68°04' E 013°45'0 0.2
2020-Mar-28 23:30N 68°04' E 013°45'6 2.3
2020-Mar-28 21:01N 68°05' E 013°60'4 2.8
2020-Mar-28 19:30N 68°04' E 014°11'6 1.5
2020-Mar-28 15:30N 68°08' E 014°23'5 1.5
2020-Mar-28 12:30N 68°11' E 014°31'1 2.2
2020-Mar-28 12:00N 68°10' E 014°29'2 3.8
2020-Mar-28 11:30N 68°09' E 014°28'6 2.0
2020-Mar-28 08:30N 68°13' E 014°38'4 2.1
2020-Mar-28 06:30N 68°17' E 014°43'0 0.1
2020-Mar-28 06:00N 68°17' E 014°43'2 0.7
2020-Mar-28 03:00N 68°15' E 014°42'1 1.3
2020-Mar-28 02:30N 68°14' E 014°41'3 5.0
2020-Mar-28 02:00N 68°12' E 014°37'1 0.7
2020-Mar-28 01:00N 68°12' E 014°38'15 6.2
2020-Mar-27 22:30N 67°57' E 014°25'10 9.8
2020-Mar-27 21:31N 67°48' E 014°20'4610.1
2020-Mar-27 17:00N 67°03' E 013°52'510.7
2020-Mar-27 16:30N 67°00' E 013°41'510.1
2020-Mar-27 16:00N 66°58' E 013°30'10 9.8
2020-Mar-27 15:00N 66°50' E 013°16'1610.4
2020-Mar-27 13:30N 66°35' E 013°06'4 4.5
2020-Mar-27 12:30N 66°32' E 012°57'611.2
2020-Mar-27 12:00N 66°26' E 012°59'1611.1
2020-Mar-27 10:30N 66°10' E 012°50'611.3
2020-Mar-27 10:00N 66°05' E 012°41'17 8.8
2020-Mar-27 08:00N 65°50' E 012°22'2210.8
2020-Mar-27 06:00N 65°30' E 011°60'25 9.9
2020-Mar-27 03:30N 65°06' E 011°48'6110.2
2020-Mar-26 21:31N 64°17' E 010°20'4 8.3
2020-Mar-26 21:00N 64°14' E 010°15'3010.1
2020-Mar-26 18:00N 63°49' E 009°35'510.6
2020-Mar-26 17:30N 63°44' E 009°32'19 7.6
2020-Mar-26 15:00N 63°29' E 009°58'12 8.1
2020-Mar-26 13:30N 63°27' E 010°25'0 0.0
2020-Mar-26 11:00N 63°26' E 010°25'0 0.0
2020-Mar-26 10:00N 63°26' E 010°25'0 0.0
2020-Mar-26 09:30N 63°26' E 010°25'0 0.0
2020-Mar-26 08:00N 63°26' E 010°25'0 0.0
2020-Mar-26 07:30N 63°26' E 010°25'0 0.0
2020-Mar-26 07:00N 63°26' E 010°25'0 0.0
2020-Mar-26 06:30N 63°26' E 010°25'0 0.0
2020-Mar-26 06:00N 63°26' E 010°25'0 0.0
2020-Mar-26 05:30N 63°26' E 010°25'0 0.0
2020-Mar-26 04:30N 63°26' E 010°25'0 0.0
2020-Mar-26 03:30N 63°26' E 010°25'0 0.0
2020-Mar-25 22:59N 63°26' E 010°25'0 0.0
2020-Mar-25 20:29N 63°26' E 010°25'0 0.0
2020-Mar-25 15:29N 63°26' E 010°25'0 0.0
2020-Mar-25 13:29N 63°26' E 010°25'0 0.0
2020-Mar-25 12:59N 63°26' E 010°25'0 0.0
2020-Mar-25 10:29N 63°26' E 010°25'0 0.0
2020-Mar-25 08:29N 63°26' E 010°25'0 0.0
2020-Mar-25 07:59N 63°26' E 010°25'0 0.0
2020-Mar-25 05:29N 63°26' E 010°25'0 0.0
2020-Mar-25 01:29N 63°26' E 010°25'0 0.0
2020-Mar-25 00:59N 63°26' E 010°25'0 0.0
2020-Mar-25 00:29N 63°26' E 010°25'0 0.0
2020-Mar-24 22:59N 63°26' E 010°25'0 0.0
2020-Mar-24 21:29N 63°26' E 010°25'0 0.0
2020-Mar-24 19:59N 63°26' E 010°25'0 0.0
2020-Mar-24 19:29N 63°26' E 010°25'0 0.0
2020-Mar-24 18:59N 63°26' E 010°25'0 0.0
2020-Mar-24 17:29N 63°26' E 010°25'0 0.0
2020-Mar-24 16:59N 63°26' E 010°25'0 0.0
2020-Mar-24 15:29N 63°26' E 010°25'0 0.0
2020-Mar-24 13:59N 63°26' E 010°25'0 0.0
2020-Mar-24 13:29N 63°26' E 010°25'0 0.0
2020-Mar-24 12:59N 63°26' E 010°25'0 0.0
2020-Mar-24 09:58N 63°26' E 010°25'0 0.0
2020-Mar-24 08:28N 63°26' E 010°25'0 0.0
2020-Mar-24 07:58N 63°26' E 010°25'0 0.0
2020-Mar-24 07:28N 63°26' E 010°25'0 0.0
2020-Mar-24 05:28N 63°26' E 010°25'0 0.0
2020-Mar-24 04:28N 63°26' E 010°25'0 0.0
2020-Mar-24 01:28N 63°26' E 010°25'0 0.0
2020-Mar-24 00:28N 63°26' E 010°25'0 0.0
2020-Mar-23 23:28N 63°26' E 010°25'0 0.0
2020-Mar-23 20:58N 63°26' E 010°25'0 0.0
2020-Mar-23 19:28N 63°26' E 010°25'29 4.8
2020-Mar-23 13:30N 63°41' E 009°29'5 9.6
2020-Mar-23 13:00N 63°46' E 009°32'14 9.5
2020-Mar-23 11:30N 63°58' E 009°50'510.0
2020-Mar-23 11:00N 64°01' E 009°58'11 7.7
2020-Mar-23 09:30N 64°11' E 010°10'13 8.9
2020-Mar-23 07:59N 64°22' E 010°28'21 8.4
2020-Mar-23 05:30N 64°41' E 010°48'10 9.7
2020-Mar-23 04:30N 64°47' E 011°05'19 9.7
2020-Mar-23 02:30N 65°01' E 011°39'10 9.7
2020-Mar-23 01:30N 65°09' E 011°50'14 9.2
2020-Mar-23 00:00N 65°22' E 012°02'12 7.8
2020-Mar-22 22:30N 65°34' E 012°05'4 8.7
2020-Mar-22 22:01N 65°37' E 012°12'19 9.4
2020-Mar-22 20:00N 65°55' E 012°23'5 8.9
2020-Mar-22 19:30N 65°59' E 012°28'9 8.9
2020-Mar-22 18:30N 66°06' E 012°42'9 9.0
2020-Mar-22 17:29N 66°14' E 012°54'14 9.3
2020-Mar-22 16:00N 66°27' E 012°59'32 8.0
2020-Mar-22 12:00N 66°57' E 013°29'18 5.1
2020-Mar-22 08:30N 67°11' E 013°59'16 6.4
2020-Mar-22 06:00N 67°23' E 014°26'9 9.1
2020-Mar-22 05:01N 67°32' E 014°21'13 8.6
2020-Mar-22 03:30N 67°45' E 014°17'7 6.7
2020-Mar-22 02:30N 67°50' E 014°27'22 7.2
2020-Mar-21 23:30N 68°05' E 015°09'7 7.2
2020-Mar-21 22:30N 68°10' E 015°24'18 8.7
2020-Mar-21 20:30N 68°22' E 015°58'9 9.4
2020-Mar-21 19:30N 68°30' E 016°09'13 8.8
2020-Mar-21 18:00N 68°39' E 016°37'5 9.5
2020-Mar-21 17:30N 68°43' E 016°42'9 9.2
2020-Mar-21 16:30N 68°51' E 016°55'27 8.9
2020-Mar-21 13:31N 69°09' E 017°50'14 6.9
2020-Mar-21 11:30N 69°22' E 018°06'16 7.9
2020-Mar-21 09:30N 69°33' E 018°38'9 1.4
2020-Mar-21 03:00N 69°39' E 018°58'0 0.0
2020-Mar-21 02:30N 69°39' E 018°58'0 0.0
2020-Mar-21 02:00N 69°39' E 018°58'0 0.0
2020-Mar-21 01:30N 69°39' E 018°58'0 0.0
2020-Mar-21 01:00N 69°39' E 018°58'0 0.0
2020-Mar-21 00:00N 69°39' E 018°58'0 0.0
2020-Mar-20 23:00N 69°39' E 018°58'0 0.0
2020-Mar-20 21:30N 69°39' E 018°58'0 0.0
2020-Mar-20 21:00N 69°39' E 018°58'0 0.0
2020-Mar-20 20:30N 69°39' E 018°58'0 0.0
2020-Mar-20 19:29N 69°39' E 018°58'0 0.0
2020-Mar-20 18:59N 69°39' E 018°58'0 0.0
2020-Mar-20 16:59N 69°39' E 018°58'0 0.0
2020-Mar-20 15:59N 69°39' E 018°58'0 0.0
2020-Mar-20 14:29N 69°39' E 018°58'0 0.0
2020-Mar-20 13:59N 69°39' E 018°58'0 0.0
2020-Mar-20 12:59N 69°39' E 018°58'0 0.0
2020-Mar-20 10:59N 69°39' E 018°58'0 0.0
2020-Mar-20 08:59N 69°39' E 018°58'0 0.0
2020-Mar-20 08:29N 69°39' E 018°58'0 0.0
2020-Mar-20 05:59N 69°39' E 018°58'0 0.0
2020-Mar-20 05:29N 69°39' E 018°58'0 0.0
2020-Mar-20 02:59N 69°39' E 018°58'0 0.0
2020-Mar-20 02:29N 69°39' E 018°58'0 0.0
2020-Mar-19 23:59N 69°39' E 018°58'0 0.0
2020-Mar-19 22:59N 69°39' E 018°58'0 0.0
2020-Mar-19 22:29N 69°39' E 018°58'0 0.0
2020-Mar-19 19:59N 69°39' E 018°58'0 0.0
2020-Mar-19 19:29N 69°39' E 018°58'0 0.0
2020-Mar-19 18:29N 69°39' E 018°58'0 0.0
2020-Mar-19 16:29N 69°39' E 018°58'  

Dump ship's entire track history